Terminal Aerodrome Forecast
Issued by NWS

Home | Current Version | Previous Version | Text Only | Print | Product List | Glossary On
Versions: 1 2 3 4 5 6 7 8 9 10 11 12 13 14 15 16 17 18 19 20 21 22 23 24
872
FTUS45 KGJT 251120
TAFVEL
TAF
KVEL 251120Z 2512/2612 36005KT P6SM FEW150
     FM251700 10005KT P6SM SCT140
     FM252000 19004KT P6SM SCT130
     FM252300 26007KT P6SM BKN130
     FM260100 29006KT P6SM BKN120
     FM260500 31004KT P6SM SCT110=

USA.gov is the U.S. government's official web portal to all federal, state and local government web resources and services.